Time;durP1;ratioP1;P1;durP2;ratioP2;P2;SDS_P1;SDS_P2;PMS_P1;PMS_P2;Temp;Humidity;BMP_temperature;BMP_pressure;BME280_temperature;BME280_humidity;BME280_pressure;Samples;Min_cycle;Max_cycle;Signal;HPM_P1;HPM_P2
2021/01/14 09:08:04;;;;;;;23.60;20.40;;;;;;;19.48;39.44;101798.63;6113049;23;20139;31
2021/01/14 09:10:40;;;;;;;6.85;2.83;;;;;;;19.04;40.42;101817.78;4950690;28;20061;-75
2021/01/14 09:13:08;;;;;;;3.60;2.70;;;;;;;19.22;39.93;101808.13;4972734;28;20043;-78
2021/01/14 09:15:33;;;;;;;4.40;1.80;;;;;;;19.41;39.40;101811.09;4967529;28;20022;-85
2021/01/14 09:17:59;;;;;;;3.20;1.60;;;;;;;19.47;39.43;101806.13;4973251;28;20504;-77
2021/01/14 09:20:25;;;;;;;2.28;0.70;;;;;;;19.51;39.31;101811.81;4971341;28;20038;-77
2021/01/14 09:22:51;;;;;;;2.35;0.70;;;;;;;19.52;39.22;101810.66;4973029;28;20501;-77
2021/01/14 09:25:31;;;;;;;3.50;0.93;;;;;;;19.25;39.34;101818.50;4974294;28;20061;-75
2021/01/14 09:27:57;;;;;;;6.00;0.90;;;;;;;19.24;39.78;101825.19;4971823;28;20370;-75
2021/01/14 09:30:23;;;;;;;2.10;0.90;;;;;;;19.02;40.23;101831.19;4971440;28;20118;-77
2021/01/14 09:32:58;;;;;;;3.30;1.20;;;;;;;19.23;39.63;101837.44;4973990;28;20105;-75
2021/01/14 09:35:25;;;;;;;7.70;1.65;;;;;;;19.39;39.33;101834.78;4972868;28;20057;-75
2021/01/14 09:37:53;;;;;;;2.30;0.80;;;;;;;18.95;40.10;101842.81;4954550;28;20042;-74
2021/01/14 09:40:20;;;;;;;2.80;0.70;;;;;;;19.26;39.03;101847.00;4964964;28;20031;-77
2021/01/14 09:42:48;;;;;;;2.85;0.80;;;;;;;19.07;39.71;101845.63;4971843;28;20027;-78
2021/01/14 09:45:16;;;;;;;1.98;0.75;;;;;;;19.27;39.13;101843.91;4971666;28;20034;-75
2021/01/14 09:47:46;;;;;;;2.17;0.77;;;;;;;18.48;40.75;101856.94;4973921;28;20046;-76
2021/01/14 09:50:13;;;;;;;4.63;2.28;;;;;;;18.96;39.76;101851.94;4973127;28;20508;-75
2021/01/14 09:52:38;;;;;;;3.33;0.98;;;;;;;18.93;39.75;101855.41;4970878;28;20041;-75
2021/01/14 09:55:07;;;;;;;6.38;1.50;;;;;;;18.90;39.81;101865.22;4973112;28;20448;-75
2021/01/14 09:57:37;;;;;;;10.30;4.78;;;;;;;18.85;39.96;101869.00;4972664;28;20037;-75
2021/01/14 10:00:04;;;;;;;1.70;1.02;;;;;;;18.93;40.00;101874.78;4973797;28;20034;-75
2021/01/14 10:02:35;;;;;;;3.55;1.45;;;;;;;18.82;40.11;101880.75;4970883;28;20073;-76
2021/01/14 10:05:15;;;;;;;3.85;1.50;;;;;;;18.83;40.40;101876.03;4955252;28;20493;-76
2021/01/14 10:07:49;;;;;;;2.25;1.10;;;;;;;18.80;40.31;101879.47;4973718;28;20485;-77
2021/01/14 10:10:15;;;;;;;5.28;1.40;;;;;;;18.89;40.24;101876.59;4969505;28;20126;-77
2021/01/14 10:12:41;;;;;;;2.40;0.80;;;;;;;19.01;39.91;101884.97;4971247;28;20041;-75
2021/01/14 10:15:11;;;;;;;5.90;1.20;;;;;;;18.79;40.11;101877.84;4973743;28;20023;-76
2021/01/14 10:17:38;;;;;;;5.18;1.40;;;;;;;18.69;40.27;101879.09;4974220;28;20369;-76
2021/01/14 10:20:06;;;;;;;2.42;0.95;;;;;;;19.02;39.52;101883.81;4972746;28;20031;-76
2021/01/14 10:22:33;;;;;;;3.42;1.00;;;;;;;19.11;39.31;101890.06;4973618;28;20147;-75
2021/01/14 10:25:08;;;;;;;4.78;2.08;;;;;;;18.67;40.24;101900.78;4967232;28;20031;-77
2021/01/14 10:27:34;;;;;;;7.38;1.90;;;;;;;18.64;40.28;101900.59;4976011;28;20030;-75
2021/01/14 10:30:16;;;;;;;5.43;1.65;;;;;;;18.81;40.18;101903.22;4976628;28;20432;-76
2021/01/14 10:32:42;;;;;;;6.50;1.50;;;;;;;18.88;40.01;101911.00;4976814;28;20084;-76
2021/01/14 10:35:08;;;;;;;7.35;1.38;;;;;;;18.73;40.19;101898.59;4977657;28;20030;-75
2021/01/14 10:37:35;;;;;;;5.55;1.52;;;;;;;18.64;40.42;101911.69;4975220;28;20078;-77
2021/01/14 10:40:15;;;;;;;5.40;2.10;;;;;;;19.19;39.14;101907.72;4974226;28;20046;-76
2021/01/14 10:42:47;;;;;;;5.22;1.70;;;;;;;19.30;38.55;101915.25;4975511;28;20031;-79
2021/01/14 10:45:14;;;;;;;5.47;1.50;;;;;;;18.94;39.31;101917.94;4977334;28;20384;-84
2021/01/14 10:47:41;;;;;;;6.95;1.67;;;;;;;18.71;39.31;101934.13;4975631;28;20022;-76
2021/01/14 10:50:23;;;;;;;6.57;2.17;;;;;;;18.70;38.74;101927.78;4977214;28;20031;-77
2021/01/14 10:53:02;;;;;;;10.15;1.70;;;;;;;19.07;38.03;101936.22;4977018;28;20070;-81
2021/01/14 10:55:28;;;;;;;9.05;2.08;;;;;;;19.01;38.00;101934.81;4974727;28;20023;-77
2021/01/14 10:57:55;;;;;;;5.65;2.28;;;;;;;19.29;37.56;101933.06;4976282;28;20026;-78
2021/01/14 11:00:32;;;;;;;6.80;2.35;;;;;;;18.82;37.90;101925.06;4976177;28;20027;-75
2021/01/14 11:03:03;;;;;;;9.50;1.60;;;;;;;19.09;37.58;101933.91;4974917;28;20025;-77
2021/01/14 11:05:58;;;;;;;7.68;1.85;;;;;;;19.11;37.14;101937.94;4961232;28;20646;-77
2021/01/14 11:08:44;;;;;;;4.38;1.70;;;;;;;19.29;36.48;101924.75;4958861;28;20122;-76
2021/01/14 11:11:12;;;;;;;9.63;4.63;;;;;;;19.03;37.12;101940.81;4956673;28;20393;-77
2021/01/14 11:13:43;;;;;;;7.55;2.08;;;;;;;18.73;36.80;101942.88;4973408;28;20026;-75
2021/01/14 11:16:11;;;;;;;12.63;2.33;;;;;;;18.91;37.07;101957.41;4975377;28;20038;-77
2021/01/14 11:18:45;;;;;;;11.70;3.67;;;;;;;19.03;36.56;101951.91;4974045;28;20019;-76
2021/01/14 11:21:12;;;;;;;17.05;6.47;;;;;;;19.20;36.42;101960.03;4975368;28;20030;-76
2021/01/14 11:23:38;;;;;;;11.85;2.10;;;;;;;19.24;36.59;101943.53;4975624;28;20035;-77
2021/01/14 11:26:05;;;;;;;7.10;1.75;;;;;;;19.28;36.50;101953.59;4973125;28;20023;-76
2021/01/14 11:28:38;;;;;;;12.48;2.97;;;;;;;19.51;36.25;101958.72;4975571;28;20384;-75
2021/01/14 11:31:05;;;;;;;6.53;1.75;;;;;;;18.66;37.53;101967.53;4976412;28;20037;-78
2021/01/14 11:33:31;;;;;;;12.23;2.10;;;;;;;18.69;37.36;101964.91;4958156;28;20505;-77
2021/01/14 11:35:56;;;;;;;10.52;2.50;;;;;;;19.25;36.57;101959.00;4975387;28;20050;-79
2021/01/14 11:38:22;;;;;;;13.50;3.28;;;;;;;19.22;36.40;101943.06;4976512;28;20097;-78
2021/01/14 11:40:49;;;;;;;9.88;3.20;;;;;;;19.17;36.22;101957.94;4974010;28;20027;-86
2021/01/14 11:43:15;;;;;;;10.88;3.22;;;;;;;18.90;36.67;101955.78;4957999;28;20037;-78
2021/01/14 11:45:41;;;;;;;6.22;2.13;;;;;;;18.73;36.89;101971.38;4975358;28;20117;-78
2021/01/14 11:48:07;;;;;;;6.95;2.42;;;;;;;18.87;36.72;101973.06;4976178;28;20031;-77
2021/01/14 11:50:33;;;;;;;5.65;2.38;;;;;;;18.74;36.79;101978.56;4974737;28;20050;-78
2021/01/14 11:52:59;;;;;;;23.05;3.38;;;;;;;18.47;37.07;101976.28;4975776;28;20413;-78
2021/01/14 11:55:24;;;;;;;11.82;3.40;;;;;;;19.03;36.34;101985.13;4972765;28;20034;-77
2021/01/14 11:57:50;;;;;;;10.60;2.80;;;;;;;18.73;36.32;101988.00;4974261;28;20468;-78
2021/01/14 12:00:16;;;;;;;10.55;2.10;;;;;;;18.91;36.08;101988.69;4975716;28;20027;-78
2021/01/14 12:02:42;;;;;;;10.05;2.38;;;;;;;19.19;35.54;102001.94;4975038;28;20029;-78
2021/01/14 12:05:08;;;;;;;19.85;4.38;;;;;;;19.56;35.03;101991.75;4972682;28;20026;-79
2021/01/14 12:07:34;;;;;;;17.75;3.20;;;;;;;19.41;35.30;101999.56;4975504;28;20091;-79
2021/01/14 12:09:59;;;;;;;11.38;2.75;;;;;;;19.41;35.41;102001.53;4972668;28;20046;-79
2021/01/14 12:12:25;;;;;;;34.90;4.50;;;;;;;19.64;35.00;101997.22;4970776;28;20025;-78
2021/01/14 12:14:51;;;;;;;17.30;3.10;;;;;;;19.46;35.39;102014.38;4975362;28;20029;-78
2021/01/14 12:17:16;;;;;;;11.95;2.35;;;;;;;19.35;35.10;102012.06;4978638;28;20026;-78
2021/01/14 12:19:42;;;;;;;35.25;5.03;;;;;;;19.50;35.08;102002.28;4970615;28;20036;-76
2021/01/14 12:22:08;;;;;;;18.50;3.28;;;;;;;19.57;34.72;102018.34;4978459;28;20117;-78
2021/01/14 12:24:34;;;;;;;7.00;1.75;;;;;;;19.43;34.72;102023.38;4978472;28;20587;-80
2021/01/14 12:27:00;;;;;;;7.95;2.08;;;;;;;19.57;34.50;102023.88;4974462;28;20022;-80
2021/01/14 12:29:27;;;;;;;19.20;3.47;;;;;;;19.61;34.72;102027.63;4976313;28;20023;-82
2021/01/14 12:31:54;;;;;;;19.73;4.60;;;;;;;19.53;34.84;102029.28;4962969;28;20030;-80
2021/01/14 12:34:20;;;;;;;16.65;3.35;;;;;;;19.59;34.89;102038.25;4958925;28;20023;-78
2021/01/14 12:36:46;;;;;;;23.52;3.95;;;;;;;19.49;35.24;102033.88;4976959;28;20058;-77
2021/01/14 12:39:12;;;;;;;16.55;3.03;;;;;;;19.56;35.15;102027.78;4978200;28;20675;-76
2021/01/14 12:41:41;;;;;;;10.55;2.55;;;;;;;19.18;36.07;102031.59;4976560;28;20246;-77
2021/01/14 12:44:07;;;;;;;11.25;2.67;;;;;;;19.80;35.04;102035.38;4978229;28;20027;-75
2021/01/14 12:46:45;;;;;;;12.82;2.72;;;;;;;19.76;35.28;102040.81;4969457;28;20034;-76
2021/01/14 12:49:12;;;;;;;15.95;2.88;;;;;;;19.65;35.34;102036.88;4976946;28;20026;-73
2021/01/14 12:51:39;;;;;;;10.38;4.07;;;;;;;20.20;34.28;102033.56;4976907;28;20037;-75
2021/01/14 12:54:06;;;;;;;12.80;3.25;;;;;;;20.02;34.51;102023.03;4976217;28;20026;-74
2021/01/14 12:56:32;;;;;;;10.45;2.78;;;;;;;19.99;34.65;102032.06;4974719;28;20095;-73
2021/01/14 12:59:00;;;;;;;17.58;4.22;;;;;;;19.71;35.34;102034.66;4977651;28;20551;-73
2021/01/14 13:01:34;;;;;;;25.98;4.68;;;;;;;19.93;35.25;102035.03;4973864;28;20124;-73
2021/01/14 13:04:02;;;;;;;23.23;6.25;;;;;;;20.07;35.00;102029.16;4964195;28;20102;-77
2021/01/14 13:06:29;;;;;;;15.52;5.10;;;;;;;20.30;34.75;102031.47;4964374;28;20031;-75
2021/01/14 13:08:56;;;;;;;14.43;5.18;;;;;;;20.16;35.09;102023.50;4969178;28;20061;-78
2021/01/14 13:11:23;;;;;;;21.05;4.75;;;;;;;20.03;34.96;102033.00;4959338;28;20048;-78
2021/01/14 13:13:49;;;;;;;18.00;3.28;;;;;;;19.93;34.82;102029.50;4970187;28;20038;-79
2021/01/14 13:16:15;;;;;;;13.25;2.90;;;;;;;20.22;34.42;102030.44;4968274;28;20531;-78
2021/01/14 13:18:40;;;;;;;62.78;10.85;;;;;;;20.58;33.93;102037.97;4968112;28;20031;-82
2021/01/14 13:21:06;;;;;;;18.80;4.05;;;;;;;20.58;33.95;102037.97;4970897;28;20034;-83
2021/01/14 13:23:31;;;;;;;20.88;4.38;;;;;;;20.42;34.06;102035.06;4975093;28;20463;-83
2021/01/14 13:25:57;;;;;;;11.13;3.10;;;;;;;20.49;34.15;102035.31;4968339;28;20030;-83
2021/01/14 13:28:23;;;;;;;8.18;2.88;;;;;;;20.64;33.76;102042.13;4962893;28;20032;-82
2021/01/14 13:30:48;;;;;;;11.93;2.88;;;;;;;20.70;33.81;102037.09;4956387;28;20074;-82
2021/01/14 13:33:14;;;;;;;11.90;2.83;;;;;;;20.70;33.81;102056.53;4966153;28;20029;-82
2021/01/14 13:35:40;;;;;;;18.88;3.55;;;;;;;20.62;33.93;102055.53;4955593;28;20042;-81
2021/01/14 13:38:05;;;;;;;13.38;3.45;;;;;;;20.38;34.26;102055.53;4956936;28;20485;-85
2021/01/14 13:40:31;;;;;;;16.52;3.85;;;;;;;20.38;34.21;102055.53;4966039;28;20030;-83
2021/01/14 13:42:56;;;;;;;16.63;3.45;;;;;;;20.38;34.26;102056.34;4964233;28;20030;-76
2021/01/14 13:45:22;;;;;;;20.70;3.88;;;;;;;20.26;34.32;102047.22;4975055;28;20113;-77
2021/01/14 13:47:47;;;;;;;24.40;4.82;;;;;;;20.20;34.37;102050.22;4977032;28;20077;-77
2021/01/14 13:50:14;;;;;;;16.10;3.55;;;;;;;20.00;34.92;102053.09;4958621;28;20038;-77
2021/01/14 13:52:40;;;;;;;18.45;2.95;;;;;;;20.16;34.45;102060.38;4967275;28;20034;-77
2021/01/14 13:55:06;;;;;;;18.38;10.13;;;;;;;20.38;34.17;102055.53;4962632;28;20039;-77
2021/01/14 13:57:31;;;;;;;13.55;4.13;;;;;;;19.90;34.68;102063.50;4966070;28;20034;-78
2021/01/14 13:59:57;;;;;;;21.27;5.00;;;;;;;19.99;34.63;102066.16;4965623;28;20027;-80
2021/01/14 14:02:26;;;;;;;12.98;3.22;;;;;;;19.97;34.46;102067.66;4957409;28;20046;-77
2021/01/14 14:04:53;;;;;;;18.80;5.03;;;;;;;20.11;34.17;102074.50;4959660;28;20027;-78
2021/01/14 14:07:19;;;;;;;15.73;3.45;;;;;;;19.71;34.85;102087.34;4959758;28;20026;-81
2021/01/14 14:09:45;;;;;;;11.13;2.28;;;;;;;19.97;34.47;102070.44;4966228;28;20057;-87
2021/01/14 14:12:11;;;;;;;17.98;3.35;;;;;;;20.09;34.33;102073.22;4956409;28;20046;-90
2021/01/14 14:14:36;;;;;;;13.65;2.75;;;;;;;19.92;34.60;102077.81;4965620;28;20066;-78
2021/01/14 14:17:02;;;;;;;24.00;4.32;;;;;;;19.95;34.45;102088.25;4961802;28;20027;-77
2021/01/14 14:19:27;;;;;;;8.80;2.78;;;;;;;20.01;34.55;102082.44;4963175;28;20030;-79
2021/01/14 14:21:53;;;;;;;11.23;3.80;;;;;;;19.74;35.04;102090.28;4968148;28;20143;-78
2021/01/14 14:24:18;;;;;;;24.17;3.78;;;;;;;19.92;34.93;102086.13;4962163;28;20034;-78
2021/01/14 14:26:44;;;;;;;13.93;3.25;;;;;;;19.71;35.18;102106.75;4959273;28;20143;-84
2021/01/14 14:29:10;;;;;;;15.23;3.38;;;;;;;19.94;34.96;102103.25;4970868;28;21097;-81
2021/01/14 14:31:38;;;;;;;24.05;3.67;;;;;;;19.92;35.02;102108.31;4958767;28;20817;-81
2021/01/14 14:34:07;;;;;;;18.92;3.20;;;;;;;19.51;35.59;102117.53;4970284;28;20113;-82
2021/01/14 14:36:33;;;;;;;15.37;4.67;;;;;;;19.92;35.39;102104.75;4964621;28;20038;-82
2021/01/14 14:38:59;;;;;;;35.65;6.72;;;;;;;20.05;35.21;102119.47;4970333;28;20110;-81
2021/01/14 14:41:25;;;;;;;12.15;2.40;;;;;;;19.93;35.54;102121.03;4970313;28;20122;-87
2021/01/14 14:43:51;;;;;;;18.17;3.22;;;;;;;20.14;35.11;102128.50;4955541;28;20043;-88
2021/01/14 14:46:20;;;;;;;27.83;5.57;;;;;;;19.91;35.87;102128.91;4956602;28;20073;-86
2021/01/14 14:48:46;;;;;;;25.23;5.50;;;;;;;20.16;35.27;102120.63;4957617;28;20039;-88
2021/01/14 14:51:14;;;;;;;33.80;6.45;;;;;;;20.10;35.60;102142.25;4957887;28;20039;-90
2021/01/14 14:53:41;;;;;;;22.67;5.32;;;;;;;19.91;35.79;102137.22;4956816;28;20099;-89
2021/01/14 14:56:07;;;;;;;24.60;4.10;;;;;;;19.63;36.08;102144.53;4955316;28;20437;-87
2021/01/14 14:58:34;;;;;;;24.65;4.60;;;;;;;20.06;35.54;102143.28;4957204;28;20665;-87
2021/01/14 15:00:59;;;;;;;21.73;4.57;;;;;;;20.07;35.47;102150.44;4958885;28;20058;-88
2021/01/14 15:03:25;;;;;;;16.48;4.38;;;;;;;19.85;35.78;102146.09;4978668;28;20018;-89
2021/01/14 15:05:51;;;;;;;25.02;10.73;;;;;;;19.80;35.91;102155.47;4971781;28;20038;-88
2021/01/14 15:08:17;;;;;;;25.50;6.47;;;;;;;19.89;35.54;102158.94;4975971;28;20062;-91
2021/01/14 15:10:44;;;;;;;21.13;4.38;;;;;;;19.89;35.60;102155.38;4959241;28;20035;-84
2021/01/14 15:13:10;;;;;;;28.42;9.57;;;;;;;19.74;36.06;102159.59;4974120;28;20425;-85
2021/01/14 15:15:35;;;;;;;45.30;7.55;;;;;;;19.67;35.76;102159.34;4958215;28;20030;-83
2021/01/14 15:18:01;;;;;;;21.92;4.15;;;;;;;19.69;35.56;102159.81;4957945;28;20049;-81
2021/01/14 15:20:27;;;;;;;10.30;3.65;;;;;;;19.58;35.95;102159.41;4955954;28;20596;-81
2021/01/14 15:22:53;;;;;;;12.93;3.05;;;;;;;19.53;35.85;102180.97;4956518;28;20030;-83
2021/01/14 15:25:19;;;;;;;14.63;3.10;;;;;;;19.52;35.93;102182.09;4974308;28;20034;-85
2021/01/14 15:27:45;;;;;;;10.60;2.65;;;;;;;19.26;36.36;102182.28;4973763;28;20034;-84
2021/01/14 15:30:11;;;;;;;24.85;5.50;;;;;;;19.34;36.32;102198.03;4975482;28;20037;-84
2021/01/14 15:32:37;;;;;;;13.73;3.70;;;;;;;19.46;36.12;102202.88;4976272;28;20022;-84
2021/01/14 15:35:06;;;;;;;24.35;4.90;;;;;;;19.55;35.89;102207.19;4973573;28;20026;-84
2021/01/14 15:37:34;;;;;;;20.08;4.63;;;;;;;19.53;36.12;102214.22;4958452;28;20058;-84
2021/01/14 15:40:01;;;;;;;25.02;5.47;;;;;;;19.45;36.15;102223.41;4956862;28;20743;-88
2021/01/14 15:42:28;;;;;;;21.58;3.40;;;;;;;19.50;36.13;102214.91;4958048;28;20034;-85
2021/01/14 15:44:55;;;;;;;14.10;4.07;;;;;;;19.60;36.10;102220.06;4974858;28;20050;-84
2021/01/14 15:47:22;;;;;;;16.58;3.47;;;;;;;19.46;36.24;102212.00;4958756;28;20034;-85
2021/01/14 15:49:48;;;;;;;12.00;4.22;;;;;;;19.18;37.06;102220.00;4957322;28;20033;-87
2021/01/14 15:52:15;;;;;;;10.50;4.40;;;;;;;19.48;36.70;102225.50;4972378;28;20034;-83
2021/01/14 15:54:44;;;;;;;15.88;6.00;;;;;;;19.19;37.53;102226.34;4976098;28;20033;-80
2021/01/14 15:57:11;;;;;;;8.93;3.70;;;;;;;19.32;37.65;102233.59;4959117;28;20121;-84
2021/01/14 15:59:40;;;;;;;10.43;3.65;;;;;;;19.06;38.30;102236.56;4976107;28;20030;-88
2021/01/14 16:02:14;;;;;;;9.45;3.47;;;;;;;19.23;38.08;102233.66;4961990;28;20029;-89
2021/01/14 16:04:43;;;;;;;7.25;3.05;;;;;;;19.12;38.24;102244.34;4974668;28;20041;-82
2021/01/14 16:07:11;;;;;;;11.52;3.67;;;;;;;19.43;37.59;102239.59;4972249;28;20257;-80
2021/01/14 16:09:41;;;;;;;5.68;2.80;;;;;;;19.21;37.66;102247.06;4956466;28;20126;-77
2021/01/14 16:12:07;;;;;;;;;;;;;;;19.24;37.49;102235.28;4954187;28;20029;-79
2021/01/14 16:14:33;;;;;;;10.02;3.58;;;;;;;19.16;37.54;102243.66;4947634;28;20362;-79
2021/01/14 16:16:59;;;;;;;5.72;2.92;;;;;;;18.81;38.05;102246.59;4947581;28;20030;-81
2021/01/14 16:19:27;;;;;;;6.90;2.33;;;;;;;18.75;38.02;102257.06;4950912;28;20039;-80
2021/01/14 16:21:58;;;;;;;5.65;2.97;;;;;;;18.66;38.27;102258.22;4952609;28;20110;-81
2021/01/14 16:24:25;;;;;;;7.43;2.88;;;;;;;18.65;38.34;102249.06;4949030;28;20035;-80
2021/01/14 16:26:51;;;;;;;12.27;3.17;;;;;;;18.57;38.51;102263.75;4948209;28;20038;-81
2021/01/14 16:29:18;;;;;;;8.95;3.40;;;;;;;18.46;38.41;102266.06;4953916;28;20035;-81
2021/01/14 16:31:52;;;;;;;11.00;5.00;;;;;;;18.50;38.28;102267.03;4949039;28;20042;-80
2021/01/14 16:34:19;;;;;;;10.27;3.45;;;;;;;18.41;38.53;102271.78;4949515;28;20114;-80
2021/01/14 16:36:45;;;;;;;14.50;12.98;;;;;;;18.29;38.64;102269.72;4952270;28;20074;-80
2021/01/14 16:39:12;;;;;;;11.52;4.85;;;;;;;18.22;38.74;102263.84;4952342;28;20030;-80
2021/01/14 16:41:38;;;;;;;6.82;3.42;;;;;;;18.21;38.83;102267.78;4948887;28;20031;-80
2021/01/14 16:44:05;;;;;;;10.70;8.73;;;;;;;18.15;38.71;102271.84;4949679;28;21217;-80
2021/01/14 16:46:32;;;;;;;12.48;5.70;;;;;;;18.02;39.06;102283.88;4938463;28;20409;-80
2021/01/14 16:49:04;;;;;;;9.52;4.88;;;;;;;18.02;39.04;102278.34;4948646;28;20508;-80
2021/01/14 16:51:30;;;;;;;14.20;10.30;;;;;;;18.13;38.85;102289.88;4941910;28;20027;-79
2021/01/14 16:53:57;;;;;;;10.43;5.53;;;;;;;18.16;38.65;102294.78;4950140;28;20112;-79
2021/01/14 16:56:23;;;;;;;9.85;4.68;;;;;;;18.19;38.75;102305.19;4943605;28;20042;-78
2021/01/14 16:58:52;;;;;;;8.50;3.42;;;;;;;18.09;38.78;102306.34;4959043;28;20027;-77
2021/01/14 17:01:20;;;;;;;20.83;7.28;;;;;;;17.98;39.09;102299.50;4946508;28;20033;-80
2021/01/14 17:03:50;;;;;;;10.18;4.72;;;;;;;18.02;38.75;102306.81;4946132;28;20046;-80
2021/01/14 17:06:17;;;;;;;8.70;4.65;;;;;;;18.37;38.14;102317.06;4951458;28;20019;-80
2021/01/14 17:08:44;;;;;;;9.55;4.80;;;;;;;18.54;37.54;102317.03;4960177;28;20133;-82
2021/01/14 17:11:16;;;;;;;8.10;4.28;;;;;;;18.24;38.11;102319.66;4974084;28;20093;-80
2021/01/14 17:13:42;;;;;;;9.15;3.28;;;;;;;17.86;38.93;102311.22;4954378;28;20482;-82
2021/01/14 17:16:09;;;;;;;13.20;2.92;;;;;;;18.03;38.42;102324.22;4973649;28;20058;-90
2021/01/14 17:18:36;;;;;;;6.28;2.38;;;;;;;17.95;38.50;102322.28;4973825;28;20042;-83
2021/01/14 17:21:07;;;;;;;4.28;2.38;;;;;;;17.91;38.76;102315.75;4971361;28;20081;-82
2021/01/14 17:23:32;;;;;;;6.57;2.40;;;;;;;17.75;38.96;102319.00;4953557;28;20046;-80
2021/01/14 17:25:58;;;;;;;10.52;3.45;;;;;;;17.54;39.20;102329.03;4971909;28;20470;-80
2021/01/14 17:28:25;;;;;;;7.63;2.63;;;;;;;17.28;39.73;102336.41;4969069;28;20145;-82
2021/01/14 17:30:52;;;;;;;8.43;2.47;;;;;;;17.14;40.02;102345.63;4965779;28;20027;-81
2021/01/14 17:33:19;;;;;;;6.43;2.17;;;;;;;17.32;39.74;102342.94;4963503;28;20069;-82
2021/01/14 17:35:44;;;;;;;8.57;2.33;;;;;;;17.42;39.42;102348.16;4964816;28;20019;-80
2021/01/14 17:38:10;;;;;;;6.70;2.33;;;;;;;17.50;39.46;102344.63;4965327;28;20057;-82
2021/01/14 17:40:38;;;;;;;8.00;2.55;;;;;;;17.14;39.97;102347.56;4962801;28;20034;-79
2021/01/14 17:43:05;;;;;;;8.63;2.60;;;;;;;17.24;39.73;102344.53;4954804;28;20817;-76
2021/01/14 17:45:31;;;;;;;5.95;2.35;;;;;;;17.26;39.62;102344.22;4964421;28;20033;-80
2021/01/14 17:47:57;;;;;;;7.70;2.70;;;;;;;17.23;39.58;102348.44;4963732;28;20481;-81
2021/01/14 17:50:25;;;;;;;6.82;2.88;;;;;;;17.20;39.54;102341.59;4955720;28;20104;-83
2021/01/14 17:52:51;;;;;;;13.23;11.73;;;;;;;17.16;39.56;102348.91;4963064;28;20113;-79
2021/01/14 17:55:17;;;;;;;6.25;2.60;;;;;;;17.28;39.15;102344.69;4964933;28;20031;-80
2021/01/14 17:57:43;;;;;;;9.20;2.45;;;;;;;17.20;39.39;102349.88;4952267;28;20030;-80
2021/01/14 18:00:11;;;;;;;9.15;4.43;;;;;;;17.19;39.27;102351.00;4954225;28;20041;-81
2021/01/14 18:02:37;;;;;;;10.43;4.45;;;;;;;17.23;39.39;102345.69;4956954;28;20078;-79
2021/01/14 18:05:03;;;;;;;10.55;7.43;;;;;;;17.16;39.42;102348.09;4972395;28;20480;-79
2021/01/14 18:07:29;;;;;;;13.45;8.98;;;;;;;16.95;39.72;102358.88;4957344;28;20085;-79
2021/01/14 18:09:54;;;;;;;5.63;3.05;;;;;;;16.97;39.37;102361.31;4958219;28;20058;-79
2021/01/14 18:12:20;;;;;;;9.82;4.78;;;;;;;16.97;39.63;102364.88;4976893;28;20037;-79
2021/01/14 18:14:46;;;;;;;17.83;13.68;;;;;;;16.97;39.73;102366.81;4962218;28;20027;-79
2021/01/14 18:17:12;;;;;;;10.52;9.23;;;;;;;16.99;39.37;102368.13;4956825;28;20030;-80
2021/01/14 18:19:37;;;;;;;23.70;21.20;;;;;;;16.79;39.84;102376.97;4971796;28;21745;-79
2021/01/14 18:22:03;;;;;;;12.35;8.10;;;;;;;16.71;39.96;102369.44;4974940;28;20026;-80
2021/01/14 18:24:28;;;;;;;8.45;4.93;;;;;;;16.80;39.74;102368.38;4967035;28;20027;-80
2021/01/14 18:26:55;;;;;;;10.20;5.55;;;;;;;16.60;40.02;102371.59;4967883;28;20026;-79
2021/01/14 18:29:21;;;;;;;11.25;4.68;;;;;;;16.20;40.82;102363.19;4958682;28;20037;-79
2021/01/14 18:31:50;;;;;;;13.23;4.63;;;;;;;16.40;40.40;102361.06;4975358;28;20031;-79
2021/01/14 18:34:16;;;;;;;9.60;4.95;;;;;;;16.55;40.09;102361.53;4955333;28;20527;-79
2021/01/14 18:36:44;;;;;;;7.65;4.60;;;;;;;16.56;40.29;102370.63;4956786;28;20037;-79
2021/01/14 18:39:12;;;;;;;7.97;4.95;;;;;;;16.34;40.70;102371.44;4961815;28;20030;-79
2021/01/14 18:41:39;;;;;;;12.20;5.35;;;;;;;16.11;41.05;102370.59;4956053;28;20026;-80
2021/01/14 18:44:05;;;;;;;8.70;4.72;;;;;;;15.83;41.89;102375.34;4975163;28;20829;-80
2021/01/14 18:46:30;;;;;;;13.73;5.07;;;;;;;15.82;41.89;102377.28;4965301;28;20033;-77
2021/01/14 18:48:56;;;;;;;8.88;4.82;;;;;;;15.70;41.59;102382.50;4963470;28;20034;-77
2021/01/14 18:51:22;;;;;;;11.40;5.47;;;;;;;16.04;40.84;102382.03;4977636;28;20022;-77
2021/01/14 18:53:47;;;;;;;10.40;4.40;;;;;;;16.19;40.52;102382.81;4979376;28;20102;-77
2021/01/14 18:56:20;;;;;;;6.90;4.00;;;;;;;16.02;41.22;102387.06;4969411;28;20121;-78
2021/01/14 18:58:46;;;;;;;7.68;4.03;;;;;;;16.19;40.41;102391.91;4967109;28;20035;-80
2021/01/14 19:01:13;;;;;;;11.75;5.38;;;;;;;16.01;40.86;102388.16;4959531;28;20057;-80
2021/01/14 19:03:40;;;;;;;11.35;4.63;;;;;;;15.62;41.78;102394.22;4958505;28;20019;-77
2021/01/14 19:06:06;;;;;;;10.70;4.60;;;;;;;16.04;40.65;102386.75;4961840;28;20610;-78
2021/01/14 19:08:31;;;;;;;27.70;15.35;;;;;;;16.01;40.93;102388.16;4974106;28;20043;-80
2021/01/14 19:10:57;;;;;;;17.85;10.13;;;;;;;16.05;40.91;102391.94;4960232;28;20496;-78
2021/01/14 19:13:24;;;;;;;20.30;9.48;;;;;;;15.90;40.81;102392.28;4957369;28;20023;-79
2021/01/14 19:15:50;;;;;;;10.88;5.32;;;;;;;15.89;40.97;102401.66;4946147;28;20256;-79
2021/01/14 19:18:16;;;;;;;8.95;5.13;;;;;;;16.08;40.43;102401.50;4958361;28;20027;-79
2021/01/14 19:20:42;;;;;;;11.98;5.45;;;;;;;16.10;40.45;102407.56;4972068;28;20034;-78
2021/01/14 19:23:09;;;;;;;10.48;5.05;;;;;;;16.09;40.36;102400.38;4961461;28;20030;-77
2021/01/14 19:25:38;;;;;;;9.50;5.53;;;;;;;16.04;40.50;102401.34;4972755;28;20027;-78
2021/01/14 19:28:04;;;;;;;15.48;6.40;;;;;;;15.94;40.57;102403.47;4977394;28;20026;-78
2021/01/14 19:30:31;;;;;;;10.68;6.65;;;;;;;15.98;40.41;102401.75;4972880;28;20035;-79
2021/01/14 19:32:56;;;;;;;11.38;7.93;;;;;;;15.97;40.32;102411.97;4968238;28;20085;-78
2021/01/14 19:35:22;;;;;;;11.57;6.38;;;;;;;15.82;40.58;102407.59;4966135;28;20031;-79
2021/01/14 19:37:48;;;;;;;9.63;6.18;;;;;;;15.88;40.53;102411.06;4967430;28;20477;-79
2021/01/14 19:40:18;;;;;;;12.40;5.70;;;;;;;15.85;40.41;102419.13;4972314;28;20018;-79
2021/01/14 19:42:46;;;;;;;8.98;4.20;;;;;;;15.77;40.56;102428.94;4972437;28;20713;-82
2021/01/14 19:45:14;;;;;;;12.38;5.07;;;;;;;15.80;40.19;102431.91;4966069;28;20093;-80
2021/01/14 19:47:40;;;;;;;11.98;9.60;;;;;;;15.71;40.32;102427.41;4959149;28;20386;-74
2021/01/14 19:50:09;;;;;;;11.63;6.32;;;;;;;15.80;40.04;102433.84;4959704;28;20118;-80
2021/01/14 19:52:42;;;;;;;13.52;11.90;;;;;;;15.63;40.42;102431.69;4965424;28;20034;-76
2021/01/14 19:55:08;;;;;;;17.48;15.32;;;;;;;15.90;40.01;102430.88;4973650;28;20045;-72
2021/01/14 19:57:34;;;;;;;9.48;5.15;;;;;;;15.95;40.01;102443.75;4972579;28;20029;-72
2021/01/14 20:00:00;;;;;;;12.13;5.82;;;;;;;15.85;40.19;102453.00;4975832;28;20027;-73
2021/01/14 20:02:25;;;;;;;73.75;57.17;;;;;;;15.97;39.90;102456.06;4975533;28;20377;-72
2021/01/14 20:04:51;;;;;;;62.58;50.70;;;;;;;15.89;39.85;102456.81;4973294;28;20027;-72
2021/01/14 20:07:16;;;;;;;90.90;81.28;;;;;;;15.89;40.12;102459.56;4969556;28;20549;-74
2021/01/14 20:09:42;;;;;;;157.32;142.77;;;;;;;15.93;39.89;102463.31;4962895;28;20047;-73
2021/01/14 20:12:08;;;;;;;13.00;11.55;;;;;;;15.63;40.40;102466.69;4966769;28;20936;-73
2021/01/14 20:14:33;;;;;;;26.63;23.40;;;;;;;15.85;39.90;102466.78;4957967;28;20023;-73
2021/01/14 20:17:01;;;;;;;12.75;8.48;;;;;;;15.87;40.02;102469.25;4958837;28;20034;-73
2021/01/14 20:19:27;;;;;;;44.40;40.03;;;;;;;15.91;39.85;102476.59;4958705;28;20041;-73
2021/01/14 20:21:53;;;;;;;16.00;13.50;;;;;;;15.90;40.00;102482.44;4978470;28;20662;-72
2021/01/14 20:24:20;;;;;;;11.55;8.65;;;;;;;15.85;39.71;102485.28;4976601;28;20056;-73
2021/01/14 20:26:52;;;;;;;21.70;19.30;;;;;;;15.79;39.67;102485.41;4971623;28;20030;-73